Time;durP1;ratioP1;P1;durP2;ratioP2;P2;SDS_P1;SDS_P2;PMS_P1;PMS_P2;Temp;Humidity;BMP_temperature;BMP_pressure;BME280_temperature;BME280_humidity;BME280_pressure;Samples;Min_cycle;Max_cycle;Signal;HPM_P1;HPM_P2
2023/11/16 00:00:32;;;;;;;5.32;2.10;;;11.30;71.10;;;;;;5055647;28;20151;-76
2023/11/16 00:03:01;;;;;;;3.78;2.13;;;11.30;71.10;;;;;;5065964;28;20507;-74
2023/11/16 00:05:35;;;;;;;5.57;2.20;;;11.30;71.10;;;;;;5058854;28;20028;-74
2023/11/16 00:08:06;;;;;;;6.80;2.58;;;11.30;71.20;;;;;;5079748;28;20156;-74
2023/11/16 00:10:35;;;;;;;7.10;2.55;;;11.20;71.00;;;;;;5058895;28;20024;-74
2023/11/16 00:13:02;;;;;;;8.23;2.50;;;11.30;71.20;;;;;;5058373;28;20040;-74
2023/11/16 00:15:32;;;;;;;7.00;2.53;;;11.20;71.10;;;;;;5062649;28;20124;-74
2023/11/16 00:18:03;;;;;;;6.78;3.42;;;11.30;71.30;;;;;;5063114;28;20045;-74
2023/11/16 00:20:29;;;;;;;5.43;1.98;;;11.20;71.20;;;;;;5060887;28;20032;-74
2023/11/16 00:22:55;;;;;;;4.68;2.22;;;11.20;71.20;;;;;;5064971;28;20028;-74
2023/11/16 00:25:27;;;;;;;2.73;1.93;;;11.20;71.30;;;;;;5059679;28;20513;-74
2023/11/16 00:27:54;;;;;;;4.60;1.88;;;11.20;71.30;;;;;;5061648;28;20032;-75
2023/11/16 00:30:20;;;;;;;7.05;3.80;;;11.20;71.40;;;;;;5044401;28;20047;-75
2023/11/16 00:32:46;;;;;;;6.63;2.25;;;11.20;71.40;;;;;;5061805;28;20108;-74
2023/11/16 00:35:12;;;;;;;7.38;2.85;;;11.20;71.50;;;;;;5064300;28;20571;-75
2023/11/16 00:37:44;;;;;;;6.93;2.00;;;11.20;71.50;;;;;;5059782;28;20036;-74
2023/11/16 00:40:13;;;;;;;8.00;2.15;;;11.20;71.50;;;;;;5060038;28;20056;-74
2023/11/16 00:42:39;;;;;;;6.07;2.30;;;11.20;71.50;;;;;;5051688;28;20029;-74
2023/11/16 00:45:06;;;;;;;5.82;2.22;;;11.20;71.60;;;;;;5060928;28;20043;-74
2023/11/16 00:47:41;;;;;;;3.63;1.83;;;11.20;71.60;;;;;;5058217;28;20040;-74
2023/11/16 00:50:08;;;;;;;5.43;2.67;;;11.20;71.60;;;;;;5068566;28;20384;-73
2023/11/16 00:52:34;;;;;;;6.40;1.92;;;11.20;71.60;;;;;;5062237;28;20044;-74
2023/11/16 00:55:01;;;;;;;5.10;2.30;;;11.20;71.60;;;;;;5050542;28;20033;-74
2023/11/16 00:57:28;;;;;;;3.78;2.15;;;11.10;71.50;;;;;;5058241;28;20903;-75
2023/11/16 00:59:54;;;;;;;6.07;2.17;;;11.20;71.70;;;;;;5063416;28;20033;-74
2023/11/16 01:02:21;;;;;;;5.15;2.30;;;11.20;71.70;;;;;;5058460;28;20090;-74
2023/11/16 01:04:47;;;;;;;4.25;1.85;;;11.10;71.60;;;;;;5061901;28;20028;-74
2023/11/16 01:07:14;;;;;;;4.53;2.10;;;11.20;71.70;;;;;;5043570;28;20119;-74
2023/11/16 01:09:42;;;;;;;6.63;2.35;;;11.10;71.60;;;;;;5074587;28;20487;-74
2023/11/16 01:12:15;;;;;;;4.15;2.40;;;11.10;71.60;;;;;;5062652;28;20029;-75
2023/11/16 01:14:42;;;;;;;7.15;1.77;;;11.10;71.70;;;;;;5048662;28;20033;-74
2023/11/16 01:17:18;;;;;;;5.75;2.03;;;11.10;71.70;;;;;;5042305;28;20063;-74
2023/11/16 01:19:46;;;;;;;8.13;2.55;;;11.10;71.70;;;;;;5057558;28;20039;-74
2023/11/16 01:22:16;;;;;;;5.10;1.88;;;11.10;71.70;;;;;;5059272;28;20115;-74
2023/11/16 01:24:44;;;;;;;4.72;1.95;;;11.20;72.00;;;;;;5063608;28;20498;-74
2023/11/16 01:27:16;;;;;;;5.53;1.80;;;11.10;71.80;;;;;;5064694;28;20036;-74
2023/11/16 01:29:43;;;;;;;4.30;2.30;;;11.10;71.80;;;;;;5088679;28;20032;-74
2023/11/16 01:32:10;;;;;;;6.20;1.95;;;11.10;71.70;;;;;;5062420;28;20475;-74
2023/11/16 01:34:36;;;;;;;6.57;1.73;;;11.10;71.80;;;;;;5059746;28;20045;-74
2023/11/16 01:37:04;;;;;;;8.57;2.08;;;11.10;71.80;;;;;;5054942;28;20071;-74
2023/11/16 01:39:33;;;;;;;5.65;2.40;;;11.10;71.80;;;;;;5062837;28;20036;-74
2023/11/16 01:41:59;;;;;;;7.60;3.22;;;11.10;71.80;;;;;;5053990;28;20549;-74
2023/11/16 01:44:25;;;;;;;5.15;2.83;;;11.10;71.80;;;;;;5063046;28;20040;-74
2023/11/16 01:46:52;;;;;;;9.05;2.63;;;11.10;71.80;;;;;;5066410;28;20032;-74
2023/11/16 01:49:18;;;;;;;3.92;2.30;;;11.10;71.80;;;;;;5066756;28;20027;-74
2023/11/16 01:51:46;;;;;;;6.00;2.45;;;11.10;71.80;;;;;;5060440;28;20469;-74
2023/11/16 01:54:14;;;;;;;7.13;2.78;;;11.10;71.80;;;;;;5072127;28;20403;-74
2023/11/16 01:56:42;;;;;;;7.47;2.78;;;11.10;71.80;;;;;;5054580;28;20480;-74
2023/11/16 01:59:11;;;;;;;7.90;3.42;;;11.10;71.80;;;;;;5066471;28;20569;-75
2023/11/16 02:01:38;;;;;;;5.68;2.60;;;11.10;71.80;;;;;;5059422;28;20032;-74
2023/11/16 02:04:04;;;;;;;8.68;3.33;;;11.10;72.30;;;;;;5094246;27;20121;-74
2023/11/16 02:06:33;;;;;;;7.90;3.38;;;11.00;71.60;;;;;;5064990;28;20085;-74
2023/11/16 02:08:59;;;;;;;7.45;3.30;;;11.10;71.80;;;;;;5066997;28;20376;-74
2023/11/16 02:11:25;;;;;;;10.13;3.38;;;11.10;71.90;;;;;;5058827;28;20024;-74
2023/11/16 02:13:51;;;;;;;5.78;3.58;;;11.00;71.70;;;;;;5062839;28;20608;-74
2023/11/16 02:16:17;;;;;;;5.72;2.83;;;11.10;71.90;;;;;;5067739;28;20254;-74
2023/11/16 02:18:43;;;;;;;8.23;2.97;;;11.10;71.80;;;;;;5061238;28;20027;-74
2023/11/16 02:21:09;;;;;;;9.05;3.50;;;11.00;71.60;;;;;;5069348;28;20032;-74
2023/11/16 02:23:39;;;;;;;6.88;4.53;;;11.00;71.70;;;;;;5063400;28;20481;-74
2023/11/16 02:26:07;;;;;;;7.55;3.65;;;11.00;71.80;;;;;;5062007;28;20051;-74
2023/11/16 02:28:34;;;;;;;6.18;2.92;;;11.00;71.60;;;;;;5061957;28;20031;-74
2023/11/16 02:31:01;;;;;;;8.40;3.45;;;11.00;71.60;;;;;;5042936;28;20410;-74
2023/11/16 02:33:30;;;;;;;7.18;3.88;;;11.00;71.60;;;;;;5065420;28;20107;-73
2023/11/16 02:35:57;;;;;;;11.25;3.40;;;11.00;71.60;;;;;;5060054;28;20602;-73
2023/11/16 02:38:23;;;;;;;6.28;3.30;;;11.00;71.60;;;;;;5092013;28;20043;-74
2023/11/16 02:40:52;;;;;;;6.70;4.55;;;11.00;71.60;;;;;;5040981;28;20044;-74
2023/11/16 02:43:20;;;;;;;11.13;3.92;;;11.00;71.70;;;;;;5051910;28;20039;-74
2023/11/16 02:45:46;;;;;;;8.73;3.50;;;11.00;71.70;;;;;;5061849;28;20043;-74
2023/11/16 02:48:15;;;;;;;5.55;3.63;;;11.00;71.70;;;;;;5061097;28;20029;-74
2023/11/16 02:50:41;;;;;;;8.07;3.38;;;11.00;71.80;;;;;;5067270;28;20123;-74
2023/11/16 02:53:08;;;;;;;6.30;2.88;;;11.00;71.80;;;;;;5064911;28;20040;-74
2023/11/16 02:55:35;;;;;;;6.35;2.72;;;11.00;71.80;;;;;;5038584;28;20119;-74
2023/11/16 02:58:01;;;;;;;6.15;3.38;;;11.00;71.90;;;;;;5095975;28;20042;-74
2023/11/16 03:00:27;;;;;;;5.93;3.30;;;11.00;71.90;;;;;;5062153;28;20043;-74
2023/11/16 03:02:56;;;;;;;4.60;3.40;;;11.00;71.90;;;;;;5064960;28;20028;-74
2023/11/16 03:05:23;;;;;;;7.85;3.83;;;11.00;71.90;;;;;;5064112;28;20028;-73
2023/11/16 03:07:50;;;;;;;10.27;4.28;;;11.00;71.90;;;;;;5065651;28;20099;-74
2023/11/16 03:10:16;;;;;;;5.88;3.00;;;11.00;71.90;;;;;;5065516;28;20039;-74
2023/11/16 03:12:44;;;;;;;7.70;3.38;;;11.00;71.90;;;;;;5057091;28;20488;-74
2023/11/16 03:15:10;;;;;;;5.88;3.72;;;11.00;71.90;;;;;;5063503;28;20047;-74
2023/11/16 03:17:40;;;;;;;7.43;3.25;;;11.00;71.90;;;;;;5065605;28;20044;-74
2023/11/16 03:20:10;;;;;;;7.28;3.42;;;11.00;71.90;;;;;;5064576;28;20028;-74
2023/11/16 03:22:39;;;;;;;9.32;3.42;;;11.00;71.90;;;;;;5058112;28;20383;-74
2023/11/16 03:25:07;;;;;;;4.78;3.85;;;11.00;71.90;;;;;;5063047;28;20427;-74
2023/11/16 03:27:33;;;;;;;7.75;3.90;;;11.00;71.90;;;;;;5078995;28;20149;-74
2023/11/16 03:30:05;;;;;;;7.03;3.40;;;11.00;71.90;;;;;;5050944;28;20032;-74
2023/11/16 03:32:32;;;;;;;5.65;2.88;;;11.00;71.90;;;;;;5062850;28;20032;-74
2023/11/16 03:35:03;;;;;;;8.52;3.35;;;11.00;71.90;;;;;;5054936;28;20052;-74
2023/11/16 03:37:31;;;;;;;7.50;3.67;;;11.00;71.90;;;;;;5063097;28;20071;-74
2023/11/16 03:39:57;;;;;;;6.90;2.92;;;11.00;71.90;;;;;;5065107;28;20057;-74
2023/11/16 03:42:23;;;;;;;8.45;3.58;;;11.00;71.90;;;;;;5039034;28;20029;-75
2023/11/16 03:44:52;;;;;;;7.78;3.88;;;11.00;71.90;;;;;;5060704;28;20587;-74
2023/11/16 03:47:18;;;;;;;5.53;2.92;;;11.00;71.90;;;;;;5064749;28;20052;-74
2023/11/16 03:49:45;;;;;;;6.72;3.67;;;11.00;71.90;;;;;;5062537;28;20120;-74
2023/11/16 03:52:12;;;;;;;6.53;3.35;;;11.00;71.90;;;;;;5062764;28;20024;-74
2023/11/16 03:54:38;;;;;;;7.93;3.35;;;11.00;71.90;;;;;;5062760;28;20020;-74
2023/11/16 03:57:05;;;;;;;7.00;3.35;;;11.00;71.90;;;;;;5062539;28;20032;-74
2023/11/16 03:59:31;;;;;;;6.82;3.45;;;11.00;71.90;;;;;;5062201;28;20028;-74
2023/11/16 04:01:58;;;;;;;9.25;3.50;;;11.00;71.90;;;;;;5061545;28;20040;-73
2023/11/16 04:04:28;;;;;;;9.07;3.20;;;11.00;71.90;;;;;;5064732;28;20045;-74
2023/11/16 04:06:55;;;;;;;6.00;2.55;;;11.00;71.90;;;;;;5047394;28;20329;-74
2023/11/16 04:09:21;;;;;;;10.38;3.22;;;11.00;72.00;;;;;;5060821;28;20029;-75
2023/11/16 04:11:57;;;;;;;6.55;2.53;;;11.00;72.00;;;;;;5057614;28;20517;-75
2023/11/16 04:14:24;;;;;;;6.07;3.08;;;11.00;72.00;;;;;;5064242;28;20033;-74
2023/11/16 04:16:52;;;;;;;9.45;2.60;;;11.00;72.50;;;;;;5063127;28;20097;-74
2023/11/16 04:19:25;;;;;;;8.00;3.10;;;11.00;72.00;;;;;;5066296;28;20024;-74
2023/11/16 04:21:51;;;;;;;5.38;2.67;;;11.00;72.00;;;;;;5060473;28;20409;-74
2023/11/16 04:24:19;;;;;;;6.80;2.70;;;11.00;71.90;;;;;;5064603;28;20025;-74
2023/11/16 04:26:48;;;;;;;7.38;2.75;;;11.00;71.90;;;;;;5064660;28;20032;-75
2023/11/16 04:29:15;;;;;;;5.95;2.30;;;11.00;71.90;;;;;;5043990;28;20028;-74
2023/11/16 04:31:44;;;;;;;5.50;2.83;;;11.00;71.90;;;;;;5060654;28;20559;-74
2023/11/16 04:34:12;;;;;;;11.93;4.10;;;11.00;71.90;;;;;;5047198;28;20032;-74
2023/11/16 04:36:41;;;;;;;6.88;1.98;;;11.00;71.90;;;;;;5056569;28;20040;-74
2023/11/16 04:39:07;;;;;;;6.63;2.40;;;11.00;71.90;;;;;;5059726;28;20031;-74
2023/11/16 04:41:33;;;;;;;8.20;2.70;;;11.00;71.80;;;;;;5060465;28;20052;-74
2023/11/16 04:44:01;;;;;;;6.07;2.00;;;11.00;71.80;;;;;;5052528;28;20039;-74
2023/11/16 04:46:27;;;;;;;8.32;3.33;;;11.00;71.80;;;;;;5045855;28;20488;-74
2023/11/16 04:48:54;;;;;;;7.05;2.65;;;11.00;71.70;;;;;;5064641;28;20028;-74
2023/11/16 04:51:21;;;;;;;7.32;2.72;;;11.00;71.70;;;;;;5062010;28;20124;-74
2023/11/16 04:53:47;;;;;;;8.00;2.67;;;11.00;71.70;;;;;;5065255;28;20127;-74
2023/11/16 04:56:14;;;;;;;5.38;2.00;;;11.10;71.80;;;;;;5062784;28;20106;-74
2023/11/16 04:58:41;;;;;;;5.70;2.70;;;11.00;71.60;;;;;;5061049;28;20379;-74
2023/11/16 05:01:08;;;;;;;5.43;2.10;;;11.10;71.80;;;;;;5062521;28;20029;-74
2023/11/16 05:03:34;;;;;;;4.53;2.10;;;11.00;71.70;;;;;;5063310;28;20334;-74
2023/11/16 05:06:01;;;;;;;7.28;2.33;;;11.00;71.60;;;;;;5064920;28;20044;-74
2023/11/16 05:08:27;;;;;;;8.90;2.33;;;11.10;71.80;;;;;;5062321;28;20045;-74
2023/11/16 05:10:53;;;;;;;6.47;3.78;;;11.10;71.70;;;;;;5059358;28;20274;-73
2023/11/16 05:13:22;;;;;;;7.43;2.40;;;11.10;71.70;;;;;;5076345;28;20101;-74
2023/11/16 05:15:49;;;;;;;6.32;2.50;;;11.10;71.60;;;;;;5064097;28;20032;-74
2023/11/16 05:18:16;;;;;;;4.50;2.65;;;11.00;71.40;;;;;;5060846;28;20380;-74
2023/11/16 05:20:42;;;;;;;5.65;2.67;;;11.10;71.60;;;;;;5066775;28;20068;-74
2023/11/16 05:23:09;;;;;;;5.28;2.33;;;11.10;71.60;;;;;;5060175;28;20483;-74
2023/11/16 05:25:36;;;;;;;11.75;3.22;;;11.10;71.50;;;;;;5062682;28;20033;-74
2023/11/16 05:28:03;;;;;;;5.13;1.88;;;11.10;71.50;;;;;;5060042;28;20021;-74
2023/11/16 05:30:31;;;;;;;4.07;1.63;;;11.00;71.40;;;;;;5060213;28;20724;-74
2023/11/16 05:32:58;;;;;;;6.82;3.05;;;11.10;72.00;;;;;;5062434;28;20078;-74
2023/11/16 05:35:24;;;;;;;5.18;2.45;;;11.10;71.50;;;;;;5063187;28;20276;-74
2023/11/16 05:37:50;;;;;;;10.57;2.63;;;11.10;71.40;;;;;;5065537;28;20047;-74
2023/11/16 05:40:16;;;;;;;6.28;2.17;;;11.10;71.40;;;;;;5064570;28;20037;-74
2023/11/16 05:42:42;;;;;;;7.38;2.45;;;11.10;71.40;;;;;;5056534;28;20504;-74
2023/11/16 05:45:12;;;;;;;10.80;2.72;;;11.10;71.40;;;;;;5063948;28;20060;-74
2023/11/16 05:47:40;;;;;;;6.78;2.40;;;11.10;71.40;;;;;;5063246;28;20298;-74
2023/11/16 05:50:07;;;;;;;11.07;3.13;;;11.10;71.40;;;;;;5062708;28;20032;-74
2023/11/16 05:52:34;;;;;;;5.30;2.08;;;11.10;71.40;;;;;;5062600;28;20031;-74
2023/11/16 05:55:01;;;;;;;5.40;2.22;;;11.10;71.40;;;;;;5059138;28;20033;-74
2023/11/16 05:57:27;;;;;;;6.57;2.47;;;11.10;71.40;;;;;;5061913;28;20036;-73
2023/11/16 05:59:53;;;;;;;8.15;2.42;;;11.10;71.40;;;;;;5059131;28;20036;-73
2023/11/16 06:02:19;;;;;;;7.35;2.72;;;11.10;71.30;;;;;;5063209;28;20036;-76
2023/11/16 06:04:45;;;;;;;7.03;2.28;;;11.10;71.30;;;;;;5060934;28;20037;-76
2023/11/16 06:07:11;;;;;;;7.00;2.35;;;11.10;71.20;;;;;;5062990;28;20136;-74
2023/11/16 06:09:38;;;;;;;4.57;2.20;;;11.10;71.70;;;;;;5068029;28;20093;-77
2023/11/16 06:12:04;;;;;;;7.57;2.47;;;11.10;71.20;;;;;;5059577;28;20480;-76
2023/11/16 06:14:32;;;;;;;8.23;2.42;;;11.10;71.10;;;;;;5064490;28;20285;-76
2023/11/16 06:16:58;;;;;;;7.95;3.35;;;11.10;71.10;;;;;;5059191;28;20463;-76
2023/11/16 06:19:24;;;;;;;6.68;2.28;;;11.10;71.10;;;;;;5064778;28;20039;-76
2023/11/16 06:21:51;;;;;;;8.50;3.20;;;11.10;71.00;;;;;;5041835;28;20391;-76
2023/11/16 06:24:16;;;;;;;5.07;2.55;;;11.00;70.80;;;;;;5062264;28;20346;-75
2023/11/16 06:26:43;;;;;;;3.90;2.78;;;11.10;71.00;;;;;;5056036;28;20045;-75
2023/11/16 06:29:09;;;;;;;10.75;2.38;;;11.10;71.00;;;;;;5062161;28;20063;-75
2023/11/16 06:31:35;;;;;;;5.68;2.75;;;11.10;70.90;;;;;;5058909;28;20024;-75
2023/11/16 06:34:05;;;;;;;7.15;2.20;;;11.00;70.70;;;;;;5060712;28;20028;-75
2023/11/16 06:36:31;;;;;;;5.70;2.25;;;11.00;70.70;;;;;;5057491;28;20492;-75
2023/11/16 06:38:57;;;;;;;11.63;2.70;;;11.10;70.80;;;;;;5056273;28;20084;-75
2023/11/16 06:41:24;;;;;;;8.68;2.58;;;11.00;70.60;;;;;;5057375;28;20206;-75
2023/11/16 06:43:52;;;;;;;4.57;2.10;;;11.10;70.80;;;;;;5052477;28;20061;-74
2023/11/16 06:46:19;;;;;;;8.60;2.60;;;11.10;70.70;;;;;;5065545;28;20039;-75
2023/11/16 06:48:45;;;;;;;5.78;1.70;;;11.00;70.50;;;;;;5056187;28;20035;-75
2023/11/16 06:51:11;;;;;;;5.55;2.70;;;11.00;70.50;;;;;;5058255;28;20028;-73
2023/11/16 06:53:37;;;;;;;5.70;2.40;;;11.00;70.50;;;;;;5060536;28;20112;-77
2023/11/16 06:56:06;;;;;;;4.90;2.83;;;11.00;70.60;;;;;;5064892;28;20036;-77
2023/11/16 06:58:40;;;;;;;10.05;2.63;;;11.00;70.80;;;;;;5056757;28;20120;-77
2023/11/16 07:01:07;;;;;;;8.70;2.58;;;11.10;71.00;;;;;;5055131;28;20068;-75
2023/11/16 07:03:33;;;;;;;9.07;2.40;;;11.10;71.00;;;;;;5058690;28;20085;-78
2023/11/16 07:06:00;;;;;;;8.18;2.42;;;11.10;71.00;;;;;;5058155;28;20097;-74
2023/11/16 07:08:26;;;;;;;11.32;3.58;;;11.10;71.00;;;;;;5057642;28;20438;-74
2023/11/16 07:10:52;;;;;;;12.48;2.92;;;11.10;71.00;;;;;;5055395;28;20752;-75
2023/11/16 07:13:22;;;;;;;6.50;2.75;;;11.00;70.70;;;;;;5040636;28;20598;-75
2023/11/16 07:15:49;;;;;;;8.75;2.03;;;11.10;70.70;;;;;;5057261;28;20418;-75
2023/11/16 07:18:19;;;;;;;4.25;1.98;;;11.00;70.50;;;;;;5056472;28;20101;-74
2023/11/16 07:20:47;;;;;;;6.40;2.42;;;11.00;70.40;;;;;;5061684;28;20040;-75
2023/11/16 07:23:14;;;;;;;3.88;1.52;;;11.00;70.30;;;;;;5057824;28;20514;-74
2023/11/16 07:25:43;;;;;;;5.82;2.10;;;10.90;70.10;;;;;;5060886;28;20409;-75
2023/11/16 07:28:10;;;;;;;7.25;2.00;;;10.90;70.10;;;;;;5057699;28;20147;-75
2023/11/16 07:30:37;;;;;;;8.77;2.80;;;10.80;69.90;;;;;;5054080;28;20342;-74
2023/11/16 07:33:04;;;;;;;7.35;3.05;;;10.80;69.80;;;;;;5057766;28;20036;-74
2023/11/16 07:35:33;;;;;;;9.88;2.22;;;10.80;69.80;;;;;;5055327;28;20033;-75
2023/11/16 07:38:00;;;;;;;4.70;2.00;;;10.80;69.80;;;;;;5058901;28;20123;-75
2023/11/16 07:40:26;;;;;;;6.68;2.45;;;10.80;69.80;;;;;;5075470;28;20053;-75
2023/11/16 07:42:53;;;;;;;6.55;2.47;;;10.70;69.50;;;;;;5056355;28;20032;-76
2023/11/16 07:45:19;;;;;;;4.90;1.92;;;10.70;69.40;;;;;;5061691;28;20110;-76
2023/11/16 07:47:47;;;;;;;5.68;2.10;;;10.70;69.40;;;;;;5058432;28;20052;-77
2023/11/16 07:50:14;;;;;;;4.70;1.75;;;10.70;69.40;;;;;;5060188;28;20033;-76
2023/11/16 07:52:47;;;;;;;5.35;1.90;;;10.70;69.30;;;;;;5070102;28;20036;-77
2023/11/16 07:55:21;;;;;;;6.57;2.10;;;10.60;69.00;;;;;;5067402;28;21466;-77
2023/11/16 07:57:49;;;;;;;6.47;2.97;;;10.60;69.00;;;;;;5054535;28;20055;-75
2023/11/16 08:00:26;;;;;;;5.45;2.35;;;10.60;68.90;;;;;;5064428;28;20448;-76
2023/11/16 08:05:43;;;;;;;3.17;1.60;;;10.60;68.80;;;;;;5058451;28;20375;-76
2023/11/16 08:08:13;;;;;;;9.48;3.05;;;10.60;68.70;;;;;;5036288;28;20048;-75
2023/11/16 08:10:44;;;;;;;4.53;1.98;;;10.50;68.50;;;;;;5051537;28;20267;-75
2023/11/16 08:13:13;;;;;;;6.78;2.30;;;10.50;68.50;;;;;;5056955;28;20546;-76
2023/11/16 08:15:40;;;;;;;5.57;2.13;;;10.50;68.40;;;;;;5053437;28;20109;-74
2023/11/16 08:18:12;;;;;;;4.97;1.55;;;10.50;68.40;;;;;;5059667;28;20025;-74
2023/11/16 08:20:41;;;;;;;5.07;1.95;;;10.50;68.30;;;;;;5056408;28;20084;-75
2023/11/16 08:23:08;;;;;;;4.80;2.00;;;10.50;68.30;;;;;;5060076;28;20151;-74
2023/11/16 08:25:38;;;;;;;5.72;1.83;;;10.50;68.30;;;;;;5053536;28;20036;-75
2023/11/16 08:28:08;;;;;;;5.85;2.10;;;10.40;68.00;;;;;;5059806;28;20074;-75
2023/11/16 08:30:34;;;;;;;5.65;1.80;;;10.50;68.20;;;;;;5055610;28;20075;-74
2023/11/16 08:33:00;;;;;;;5.43;1.90;;;10.40;68.00;;;;;;5059027;28;20042;-75
2023/11/16 08:35:26;;;;;;;4.80;1.90;;;10.40;67.90;;;;;;5059716;28;20032;-75
2023/11/16 08:37:55;;;;;;;4.95;1.40;;;10.50;68.10;;;;;;5052693;28;20535;-76
2023/11/16 08:40:23;;;;;;;8.95;1.90;;;10.50;68.00;;;;;;5055462;28;20048;-76
2023/11/16 08:42:51;;;;;;;5.40;1.98;;;10.50;67.90;;;;;;5042042;28;20021;-75
2023/11/16 08:45:19;;;;;;;8.52;3.08;;;10.50;67.80;;;;;;5048518;28;20033;-75
2023/11/16 08:47:52;;;;;;;8.48;2.42;;;10.50;67.70;;;;;;5052451;28;20390;-78
2023/11/16 08:50:22;;;;;;;8.48;2.28;;;10.50;67.70;;;;;;5052773;28;20050;-78
2023/11/16 08:52:49;;;;;;;7.60;2.38;;;10.50;67.60;;;;;;5048179;28;20734;-75
2023/11/16 08:55:19;;;;;;;6.95;2.78;;;10.60;67.70;;;;;;5061364;28;20312;-75
2023/11/16 08:57:47;;;;;;;4.43;2.00;;;10.60;67.70;;;;;;5060160;28;20059;-75
2023/11/16 09:00:37;;;;;;;6.63;2.20;;;10.60;67.60;;;;;;5057210;28;20564;-76
2023/11/16 09:03:07;;;;;;;6.80;1.73;;;10.70;67.70;;;;;;5069868;28;20036;-76
2023/11/16 09:05:39;;;;;;;5.82;1.90;;;10.60;67.40;;;;;;5054612;28;20020;-75
2023/11/16 09:08:10;;;;;;;6.47;2.10;;;10.70;67.50;;;;;;5055014;28;20127;-75
2023/11/16 09:10:36;;;;;;;8.40;2.47;;;10.70;67.40;;;;;;5061870;28;20081;-76
2023/11/16 09:13:03;;;;;;;5.97;2.33;;;10.70;67.30;;;;;;5059039;28;20060;-76
2023/11/16 09:15:30;;;;;;;7.60;2.35;;;10.80;67.40;;;;;;5063642;28;20240;-76
2023/11/16 09:17:59;;;;;;;9.30;2.95;;;10.80;67.30;;;;;;5063530;28;20054;-76
2023/11/16 09:20:28;;;;;;;4.28;2.33;;;10.70;67.20;;;;;;5058493;28;20539;-77
2023/11/16 09:22:57;;;;;;;7.60;2.90;;;10.80;67.30;;;;;;5064781;28;20039;-76
2023/11/16 09:25:25;;;;;;;4.10;2.78;;;10.80;67.30;;;;;;5066034;28;20334;-76
2023/11/16 09:27:54;;;;;;;7.15;2.40;;;10.70;67.10;;;;;;5060315;28;20078;-77
2023/11/16 09:30:22;;;;;;;5.55;2.67;;;10.80;67.30;;;;;;5053734;28;20497;-78
2023/11/16 09:32:52;;;;;;;7.75;2.70;;;10.70;67.00;;;;;;5061515;28;20395;-76
2023/11/16 09:35:23;;;;;;;6.30;3.40;;;10.70;67.00;;;;;;5061320;28;20103;-77
2023/11/16 09:37:52;;;;;;;5.43;2.88;;;10.70;67.00;;;;;;5059846;28;20263;-77
2023/11/16 09:40:28;;;;;;;11.10;4.28;;;10.70;67.00;;;;;;5058039;28;20101;-75
2023/11/16 09:43:00;;;;;;;9.35;3.20;;;10.70;66.90;;;;;;5059463;28;20032;-76
2023/11/16 09:45:27;;;;;;;5.55;3.45;;;10.80;67.10;;;;;;5059402;28;20456;-77
2023/11/16 09:48:00;;;;;;;9.10;2.97;;;10.80;67.00;;;;;;5045534;28;20345;-75
2023/11/16 09:50:28;;;;;;;9.95;2.92;;;10.80;67.00;;;;;;5059315;28;20100;-76
2023/11/16 09:53:03;;;;;;;5.00;2.85;;;10.80;67.00;;;;;;5064525;28;20093;-75
2023/11/16 09:55:32;;;;;;;8.02;3.20;;;10.80;66.80;;;;;;5094373;27;20024;-75
2023/11/16 09:58:08;;;;;;;7.13;2.90;;;10.80;66.80;;;;;;5064330;28;20047;-76
2023/11/16 10:00:35;;;;;;;6.53;2.78;;;10.80;66.80;;;;;;5040305;28;20356;-76
2023/11/16 10:03:05;;;;;;;6.78;2.22;;;10.90;66.90;;;;;;5064307;28;20047;-76
2023/11/16 10:05:40;;;;;;;6.20;2.75;;;10.80;66.70;;;;;;5062636;28;20229;-76
2023/11/16 10:08:14;;;;;;;6.57;2.97;;;10.90;66.80;;;;;;5061502;28;20673;-76
2023/11/16 10:10:54;;;;;;;7.53;3.00;;;10.90;66.80;;;;;;5060069;28;20020;-76
2023/11/16 10:13:24;;;;;;;7.10;3.10;;;10.80;66.50;;;;;;5059603;28;20028;-76
2023/11/16 10:15:54;;;;;;;6.20;2.90;;;10.90;67.20;;;;;;5066723;28;20024;-76
2023/11/16 10:18:21;;;;;;;7.00;2.53;;;10.90;66.60;;;;;;5066191;28;20281;-75
2023/11/16 10:20:49;;;;;;;7.18;2.55;;;10.90;66.50;;;;;;5065934;28;20024;-76
2023/11/16 10:23:17;;;;;;;6.95;2.95;;;11.00;66.70;;;;;;5059909;28;20093;-75
2023/11/16 10:25:47;;;;;;;7.68;2.78;;;10.90;66.50;;;;;;5055004;28;20034;-76
2023/11/16 10:28:21;;;;;;;6.13;3.67;;;11.00;66.60;;;;;;5063850;28;20075;-77
2023/11/16 10:30:50;;;;;;;6.03;2.47;;;10.90;66.40;;;;;;5059544;28;20444;-76
2023/11/16 10:33:23;;;;;;;6.30;2.28;;;11.00;66.50;;;;;;5058554;28;20597;-76
2023/11/16 10:35:57;;;;;;;6.38;2.85;;;11.00;66.50;;;;;;5064473;28;20336;-77
2023/11/16 10:38:27;;;;;;;6.85;2.65;;;11.00;66.40;;;;;;5061995;28;20035;-76
2023/11/16 10:40:54;;;;;;;7.47;2.50;;;11.10;66.60;;;;;;5064574;28;20131;-77
2023/11/16 10:43:27;;;;;;;10.98;2.75;;;11.10;66.50;;;;;;5047725;28;20207;-76
2023/11/16 10:45:56;;;;;;;7.15;2.50;;;11.10;66.40;;;;;;5057097;28;20033;-76
2023/11/16 10:48:23;;;;;;;6.72;2.60;;;11.10;66.40;;;;;;5056086;28;20163;-77
2023/11/16 10:50:51;;;;;;;8.27;3.25;;;11.20;66.50;;;;;;5062680;28;20175;-77
2023/11/16 10:53:23;;;;;;;4.22;2.35;;;11.20;66.50;;;;;;5043079;28;20074;-76
2023/11/16 10:55:55;;;;;;;7.63;2.85;;;11.20;66.40;;;;;;5057500;28;20036;-76
2023/11/16 10:58:29;;;;;;;6.95;2.50;;;11.30;66.60;;;;;;5040099;28;20042;-77
2023/11/16 11:00:57;;;;;;;5.38;2.20;;;11.30;66.60;;;;;;5057598;28;20093;-75
2023/11/16 11:03:26;;;;;;;5.93;2.30;;;11.40;66.70;;;;;;5064541;28;20409;-75
2023/11/16 11:05:57;;;;;;;5.50;2.33;;;11.40;66.70;;;;;;5084427;27;20067;-76
2023/11/16 11:08:42;;;;;;;5.22;2.33;;;11.40;66.60;;;;;;5054798;28;20451;-76
2023/11/16 11:11:12;;;;;;;7.93;2.55;;;11.40;66.60;;;;;;5054125;28;20089;-76
2023/11/16 11:13:41;;;;;;;8.25;2.65;;;11.50;66.70;;;;;;5063292;28;20326;-77
2023/11/16 11:16:10;;;;;;;6.40;2.40;;;11.50;66.70;;;;;;5059288;28;20375;-76
2023/11/16 11:18:48;;;;;;;5.18;2.85;;;11.60;66.90;;;;;;5056762;28;20503;-75
2023/11/16 11:21:19;;;;;;;4.68;1.80;;;11.60;66.90;;;;;;5058495;28;20385;-74
2023/11/16 11:24:04;;;;;;;4.78;2.17;;;11.70;67.00;;;;;;5063485;28;20135;-75
2023/11/16 11:26:41;;;;;;;7.03;2.92;;;11.70;66.90;;;;;;5060743;28;20033;-74
2023/11/16 11:29:10;;;;;;;6.50;2.72;;;11.70;66.90;;;;;;5054184;28;20442;-75
2023/11/16 11:31:46;;;;;;;6.78;2.60;;;11.80;67.00;;;;;;5054700;28;20087;-74
2023/11/16 11:34:15;;;;;;;5.28;2.70;;;11.80;67.00;;;;;;5053748;28;20528;-75
2023/11/16 11:36:44;;;;;;;8.57;2.97;;;11.90;67.10;;;;;;5056374;28;20036;-77
2023/11/16 11:39:17;;;;;;;8.38;2.35;;;11.90;67.00;;;;;;5057451;28;20029;-76
2023/11/16 11:41:59;;;;;;;6.75;2.85;;;12.00;67.10;;;;;;5065782;28;20029;-74
2023/11/16 11:44:27;;;;;;;10.27;2.38;;;12.00;67.10;;;;;;5059378;28;20111;-75
2023/11/16 11:46:56;;;;;;;5.35;2.20;;;12.10;67.20;;;;;;5064238;28;20072;-77
2023/11/16 11:49:26;;;;;;;10.13;3.35;;;12.10;67.10;;;;;;5056965;28;20032;-75
2023/11/16 11:51:53;;;;;;;4.28;2.20;;;12.20;67.20;;;;;;5056205;28;20039;-75
2023/11/16 11:54:33;;;;;;;4.55;1.90;;;12.20;67.10;;;;;;5062496;28;20835;-75
2023/11/16 11:57:05;;;;;;;5.07;2.03;;;12.20;67.00;;;;;;5058100;28;20265;-76
2023/11/16 11:59:31;;;;;;;7.72;1.85;;;12.30;67.10;;;;;;5057123;28;20544;-76
2023/11/16 12:02:11;;;;;;;8.32;2.78;;;12.30;67.00;;;;;;5058342;28;20169;-76
2023/11/16 12:04:39;;;;;;;6.53;1.80;;;12.40;67.10;;;;;;5059623;28;20024;-76
2023/11/16 12:07:10;;;;;;;7.95;2.05;;;12.40;67.00;;;;;;5057745;28;20040;-76
2023/11/16 12:09:40;;;;;;;6.47;1.92;;;12.50;67.00;;;;;;5058914;28;20033;-76
2023/11/16 12:12:08;;;;;;;7.63;2.20;;;12.50;66.90;;;;;;5054551;28;20037;-76
2023/11/16 12:14:45;;;;;;;3.22;1.77;;;12.50;66.80;;;;;;5055661;28;20033;-76
2023/11/16 12:17:12;;;;;;;4.90;1.92;;;12.50;66.70;;;;;;5055090;28;20036;-75
2023/11/16 12:19:42;;;;;;;9.48;2.75;;;12.60;66.80;;;;;;5057740;28;20028;-74
2023/11/16 12:22:12;;;;;;;;;;;12.70;66.80;;;;;;5052149;28;20493;-73
2023/11/16 12:24:39;;;;;;;6.25;2.10;;;12.70;66.80;;;;;;5055779;28;19931;-76
2023/11/16 12:27:06;;;;;;;7.95;2.22;;;12.60;66.60;;;;;;5054995;28;20036;-76
2023/11/16 12:29:33;;;;;;;6.38;1.88;;;12.70;66.70;;;;;;5052474;28;20039;-77
2023/11/16 12:32:01;;;;;;;6.65;2.20;;;12.70;66.70;;;;;;5049365;28;20467;-77
2023/11/16 12:34:27;;;;;;;4.57;1.95;;;12.70;66.60;;;;;;5056519;28;20055;-76
2023/11/16 12:36:55;;;;;;;8.13;2.55;;;12.70;66.60;;;;;;5052106;28;20083;-77
2023/11/16 12:39:31;;;;;;;7.25;2.47;;;12.70;66.50;;;;;;5059572;28;20028;-77
2023/11/16 12:42:07;;;;;;;9.52;2.67;;;12.70;66.50;;;;;;5051801;28;20495;-77
2023/11/16 12:44:34;;;;;;;7.15;3.30;;;12.70;66.40;;;;;;5064052;28;20047;-75
2023/11/16 12:47:02;;;;;;;6.05;2.40;;;12.70;66.40;;;;;;5059815;28;20487;-75
2023/11/16 12:49:28;;;;;;;3.78;2.00;;;12.70;66.40;;;;;;5063533;28;20585;-75
2023/11/16 12:51:55;;;;;;;6.65;2.50;;;12.70;66.40;;;;;;5063593;28;20488;-75
2023/11/16 12:54:21;;;;;;;8.25;2.58;;;12.70;66.40;;;;;;5072905;28;20035;-76